sensor_id;sensor_type;location;lat;lon;timestamp;P1;durP1;ratioP1;P2;durP2;ratioP2
67092;SDS011;54011;50.772;7.730;2022-09-06T00:00:34;4.53;;;1.83;;
67092;SDS011;54011;50.772;7.730;2022-09-06T00:02:59;5.50;;;1.70;;
67092;SDS011;54011;50.772;7.730;2022-09-06T00:05:26;5.03;;;1.80;;
67092;SDS011;54011;50.772;7.730;2022-09-06T00:07:52;4.50;;;1.85;;
67092;SDS011;54011;50.772;7.730;2022-09-06T00:10:17;5.60;;;1.60;;
67092;SDS011;54011;50.772;7.730;2022-09-06T00:12:43;4.90;;;2.10;;
67092;SDS011;54011;50.772;7.730;2022-09-06T00:15:08;4.63;;;2.00;;
67092;SDS011;54011;50.772;7.730;2022-09-06T00:17:34;4.47;;;2.15;;
67092;SDS011;54011;50.772;7.730;2022-09-06T00:20:00;4.30;;;2.08;;
67092;SDS011;54011;50.772;7.730;2022-09-06T00:22:26;5.15;;;1.85;;
67092;SDS011;54011;50.772;7.730;2022-09-06T00:24:51;5.78;;;1.98;;
67092;SDS011;54011;50.772;7.730;2022-09-06T00:27:17;5.38;;;2.00;;
67092;SDS011;54011;50.772;7.730;2022-09-06T00:29:42;3.53;;;1.70;;
67092;SDS011;54011;50.772;7.730;2022-09-06T00:32:07;4.95;;;1.80;;
67092;SDS011;54011;50.772;7.730;2022-09-06T00:34:33;4.63;;;2.00;;
67092;SDS011;54011;50.772;7.730;2022-09-06T00:36:59;6.53;;;1.90;;
67092;SDS011;54011;50.772;7.730;2022-09-06T00:39:24;5.90;;;1.95;;
67092;SDS011;54011;50.772;7.730;2022-09-06T00:41:51;4.43;;;2.10;;
67092;SDS011;54011;50.772;7.730;2022-09-06T00:44:17;5.18;;;1.98;;
67092;SDS011;54011;50.772;7.730;2022-09-06T00:46:43;4.10;;;2.15;;
67092;SDS011;54011;50.772;7.730;2022-09-06T00:49:13;5.90;;;1.83;;
67092;SDS011;54011;50.772;7.730;2022-09-06T00:51:48;5.57;;;1.77;;
67092;SDS011;54011;50.772;7.730;2022-09-06T00:54:19;6.10;;;1.80;;
67092;SDS011;54011;50.772;7.730;2022-09-06T00:56:45;3.60;;;1.70;;
67092;SDS011;54011;50.772;7.730;2022-09-06T00:59:12;4.07;;;1.92;;
67092;SDS011;54011;50.772;7.730;2022-09-06T01:01:39;3.67;;;1.83;;
67092;SDS011;54011;50.772;7.730;2022-09-06T01:04:04;4.72;;;1.95;;
67092;SDS011;54011;50.772;7.730;2022-09-06T01:06:40;5.45;;;1.80;;
67092;SDS011;54011;50.772;7.730;2022-09-06T01:11:49;3.83;;;2.00;;
67092;SDS011;54011;50.772;7.730;2022-09-06T01:19:53;3.63;;;1.90;;
67092;SDS011;54011;50.772;7.730;2022-09-06T01:26:02;5.57;;;1.73;;
67092;SDS011;54011;50.772;7.730;2022-09-06T01:28:45;6.60;;;1.90;;
67092;SDS011;54011;50.772;7.730;2022-09-06T01:31:17;4.10;;;2.00;;
67092;SDS011;54011;50.772;7.730;2022-09-06T01:33:49;3.75;;;1.92;;
67092;SDS011;54011;50.772;7.730;2022-09-06T01:36:26;7.68;;;2.45;;
67092;SDS011;54011;50.772;7.730;2022-09-06T01:38:56;4.82;;;2.00;;
67092;SDS011;54011;50.772;7.730;2022-09-06T01:41:21;10.75;;;2.50;;
67092;SDS011;54011;50.772;7.730;2022-09-06T01:43:47;6.03;;;2.25;;
67092;SDS011;54011;50.772;7.730;2022-09-06T01:46:27;3.88;;;1.88;;
67092;SDS011;54011;50.772;7.730;2022-09-06T01:52:13;4.97;;;2.38;;
67092;SDS011;54011;50.772;7.730;2022-09-06T01:54:40;8.68;;;2.17;;
67092;SDS011;54011;50.772;7.730;2022-09-06T02:00:14;6.13;;;2.00;;
67092;SDS011;54011;50.772;7.730;2022-09-06T02:02:59;6.50;;;2.10;;
67092;SDS011;54011;50.772;7.730;2022-09-06T02:05:45;4.03;;;2.00;;
67092;SDS011;54011;50.772;7.730;2022-09-06T02:08:16;4.22;;;2.13;;
67092;SDS011;54011;50.772;7.730;2022-09-06T02:10:50;3.28;;;1.70;;
67092;SDS011;54011;50.772;7.730;2022-09-06T02:13:22;3.50;;;1.63;;
67092;SDS011;54011;50.772;7.730;2022-09-06T02:15:53;3.92;;;1.85;;
67092;SDS011;54011;50.772;7.730;2022-09-06T02:18:24;3.58;;;1.80;;
67092;SDS011;54011;50.772;7.730;2022-09-06T02:20:55;4.07;;;1.80;;
67092;SDS011;54011;50.772;7.730;2022-09-06T02:23:23;4.47;;;2.10;;
67092;SDS011;54011;50.772;7.730;2022-09-06T02:25:53;3.23;;;1.60;;
67092;SDS011;54011;50.772;7.730;2022-09-06T02:28:23;7.53;;;2.00;;
67092;SDS011;54011;50.772;7.730;2022-09-06T02:30:49;3.50;;;1.70;;
67092;SDS011;54011;50.772;7.730;2022-09-06T02:33:20;5.53;;;1.70;;
67092;SDS011;54011;50.772;7.730;2022-09-06T02:35:51;7.60;;;1.60;;
67092;SDS011;54011;50.772;7.730;2022-09-06T02:38:20;9.40;;;1.90;;
67092;SDS011;54011;50.772;7.730;2022-09-06T02:40:47;5.10;;;1.80;;
67092;SDS011;54011;50.772;7.730;2022-09-06T02:43:14;3.88;;;1.98;;
67092;SDS011;54011;50.772;7.730;2022-09-06T02:45:39;4.00;;;1.95;;
67092;SDS011;54011;50.772;7.730;2022-09-06T02:48:04;3.53;;;1.80;;
67092;SDS011;54011;50.772;7.730;2022-09-06T02:50:30;3.95;;;1.90;;
67092;SDS011;54011;50.772;7.730;2022-09-06T02:53:08;6.78;;;1.92;;
67092;SDS011;54011;50.772;7.730;2022-09-06T02:55:36;3.45;;;1.73;;
67092;SDS011;54011;50.772;7.730;2022-09-06T02:58:02;4.95;;;2.10;;
67092;SDS011;54011;50.772;7.730;2022-09-06T03:00:28;5.47;;;2.10;;
67092;SDS011;54011;50.772;7.730;2022-09-06T03:02:55;3.72;;;1.83;;
67092;SDS011;54011;50.772;7.730;2022-09-06T03:05:21;5.93;;;2.00;;
67092;SDS011;54011;50.772;7.730;2022-09-06T03:07:48;4.13;;;2.00;;
67092;SDS011;54011;50.772;7.730;2022-09-06T03:10:13;3.40;;;1.77;;
67092;SDS011;54011;50.772;7.730;2022-09-06T03:12:43;5.97;;;2.25;;
67092;SDS011;54011;50.772;7.730;2022-09-06T03:15:09;3.88;;;1.98;;
67092;SDS011;54011;50.772;7.730;2022-09-06T03:17:36;4.53;;;1.90;;
67092;SDS011;54011;50.772;7.730;2022-09-06T03:20:02;4.35;;;1.80;;
67092;SDS011;54011;50.772;7.730;2022-09-06T03:22:28;3.85;;;1.70;;
67092;SDS011;54011;50.772;7.730;2022-09-06T03:24:53;4.50;;;1.67;;
67092;SDS011;54011;50.772;7.730;2022-09-06T03:27:18;3.67;;;1.70;;
67092;SDS011;54011;50.772;7.730;2022-09-06T03:29:44;4.05;;;1.75;;
67092;SDS011;54011;50.772;7.730;2022-09-06T03:32:09;5.40;;;1.83;;
67092;SDS011;54011;50.772;7.730;2022-09-06T03:34:35;5.03;;;1.90;;
67092;SDS011;54011;50.772;7.730;2022-09-06T03:37:00;4.63;;;1.90;;
67092;SDS011;54011;50.772;7.730;2022-09-06T03:39:25;4.40;;;1.90;;
67092;SDS011;54011;50.772;7.730;2022-09-06T03:41:51;8.00;;;2.20;;
67092;SDS011;54011;50.772;7.730;2022-09-06T03:44:16;3.50;;;1.88;;
67092;SDS011;54011;50.772;7.730;2022-09-06T03:46:41;5.47;;;2.20;;
67092;SDS011;54011;50.772;7.730;2022-09-06T03:49:08;3.75;;;1.80;;
67092;SDS011;54011;50.772;7.730;2022-09-06T03:51:34;4.85;;;1.83;;
67092;SDS011;54011;50.772;7.730;2022-09-06T03:54:00;6.30;;;2.08;;
67092;SDS011;54011;50.772;7.730;2022-09-06T03:56:25;5.22;;;2.20;;
67092;SDS011;54011;50.772;7.730;2022-09-06T03:58:51;4.45;;;2.10;;
67092;SDS011;54011;50.772;7.730;2022-09-06T04:01:16;5.07;;;2.00;;
67092;SDS011;54011;50.772;7.730;2022-09-06T04:03:42;4.63;;;1.85;;
67092;SDS011;54011;50.772;7.730;2022-09-06T04:06:07;5.78;;;2.00;;
67092;SDS011;54011;50.772;7.730;2022-09-06T04:08:33;6.38;;;2.03;;
67092;SDS011;54011;50.772;7.730;2022-09-06T04:10:59;5.10;;;2.03;;
67092;SDS011;54011;50.772;7.730;2022-09-06T04:13:25;6.68;;;2.17;;
67092;SDS011;54011;50.772;7.730;2022-09-06T04:15:51;4.00;;;1.92;;
67092;SDS011;54011;50.772;7.730;2022-09-06T04:18:17;5.28;;;2.55;;
67092;SDS011;54011;50.772;7.730;2022-09-06T04:20:44;5.43;;;2.30;;
67092;SDS011;54011;50.772;7.730;2022-09-06T04:23:13;5.13;;;2.28;;
67092;SDS011;54011;50.772;7.730;2022-09-06T04:25:38;5.35;;;2.30;;
67092;SDS011;54011;50.772;7.730;2022-09-06T04:28:04;7.07;;;2.63;;
67092;SDS011;54011;50.772;7.730;2022-09-06T04:30:29;4.68;;;2.50;;
67092;SDS011;54011;50.772;7.730;2022-09-06T04:32:54;5.47;;;2.42;;
67092;SDS011;54011;50.772;7.730;2022-09-06T04:35:20;6.40;;;2.60;;
67092;SDS011;54011;50.772;7.730;2022-09-06T04:37:45;6.40;;;2.50;;
67092;SDS011;54011;50.772;7.730;2022-09-06T04:40:11;5.95;;;2.50;;
67092;SDS011;54011;50.772;7.730;2022-09-06T04:42:36;5.60;;;2.45;;
67092;SDS011;54011;50.772;7.730;2022-09-06T04:45:01;7.18;;;2.60;;
67092;SDS011;54011;50.772;7.730;2022-09-06T04:47:27;3.97;;;2.05;;
67092;SDS011;54011;50.772;7.730;2022-09-06T04:49:52;6.85;;;2.13;;
67092;SDS011;54011;50.772;7.730;2022-09-06T04:52:18;5.88;;;2.10;;
67092;SDS011;54011;50.772;7.730;2022-09-06T04:54:43;5.00;;;2.15;;
67092;SDS011;54011;50.772;7.730;2022-09-06T04:57:09;4.68;;;2.42;;
67092;SDS011;54011;50.772;7.730;2022-09-06T04:59:35;9.15;;;2.40;;
67092;SDS011;54011;50.772;7.730;2022-09-06T05:02:01;6.50;;;2.42;;
67092;SDS011;54011;50.772;7.730;2022-09-06T05:04:27;6.55;;;2.28;;
67092;SDS011;54011;50.772;7.730;2022-09-06T05:06:59;5.18;;;2.70;;
67092;SDS011;54011;50.772;7.730;2022-09-06T05:09:29;6.88;;;2.50;;
67092;SDS011;54011;50.772;7.730;2022-09-06T05:11:55;5.78;;;2.28;;
67092;SDS011;54011;50.772;7.730;2022-09-06T05:14:20;6.57;;;2.65;;
67092;SDS011;54011;50.772;7.730;2022-09-06T05:16:46;6.40;;;2.67;;
67092;SDS011;54011;50.772;7.730;2022-09-06T05:19:11;6.65;;;2.15;;
67092;SDS011;54011;50.772;7.730;2022-09-06T05:21:37;5.38;;;2.22;;
67092;SDS011;54011;50.772;7.730;2022-09-06T05:24:02;5.88;;;2.60;;
67092;SDS011;54011;50.772;7.730;2022-09-06T05:26:28;6.75;;;2.80;;
67092;SDS011;54011;50.772;7.730;2022-09-06T05:28:53;5.70;;;2.70;;
67092;SDS011;54011;50.772;7.730;2022-09-06T05:31:23;4.50;;;2.35;;
67092;SDS011;54011;50.772;7.730;2022-09-06T05:33:52;6.55;;;2.47;;
67092;SDS011;54011;50.772;7.730;2022-09-06T05:36:18;5.45;;;2.58;;
67092;SDS011;54011;50.772;7.730;2022-09-06T05:38:44;5.00;;;2.45;;
67092;SDS011;54011;50.772;7.730;2022-09-06T05:41:10;5.75;;;2.60;;
67092;SDS011;54011;50.772;7.730;2022-09-06T05:43:36;6.25;;;2.20;;
67092;SDS011;54011;50.772;7.730;2022-09-06T05:46:02;5.18;;;2.75;;
67092;SDS011;54011;50.772;7.730;2022-09-06T05:48:27;6.32;;;2.42;;
67092;SDS011;54011;50.772;7.730;2022-09-06T05:51:04;4.85;;;2.53;;
67092;SDS011;54011;50.772;7.730;2022-09-06T05:53:35;5.38;;;2.53;;
67092;SDS011;54011;50.772;7.730;2022-09-06T05:56:02;4.68;;;2.50;;
67092;SDS011;54011;50.772;7.730;2022-09-06T05:58:30;5.97;;;2.85;;
67092;SDS011;54011;50.772;7.730;2022-09-06T06:01:03;7.10;;;2.58;;
67092;SDS011;54011;50.772;7.730;2022-09-06T06:03:31;9.32;;;2.65;;
67092;SDS011;54011;50.772;7.730;2022-09-06T06:05:57;4.65;;;2.50;;
67092;SDS011;54011;50.772;7.730;2022-09-06T06:08:22;6.68;;;2.47;;
67092;SDS011;54011;50.772;7.730;2022-09-06T06:10:48;9.40;;;2.42;;
67092;SDS011;54011;50.772;7.730;2022-09-06T06:13:13;6.72;;;2.53;;
67092;SDS011;54011;50.772;7.730;2022-09-06T06:15:39;9.10;;;2.95;;
67092;SDS011;54011;50.772;7.730;2022-09-06T06:18:04;4.43;;;2.50;;
67092;SDS011;54011;50.772;7.730;2022-09-06T06:20:29;4.85;;;2.30;;
67092;SDS011;54011;50.772;7.730;2022-09-06T06:22:58;4.85;;;2.38;;
67092;SDS011;54011;50.772;7.730;2022-09-06T06:25:23;6.40;;;2.85;;
67092;SDS011;54011;50.772;7.730;2022-09-06T06:27:50;5.93;;;2.97;;
67092;SDS011;54011;50.772;7.730;2022-09-06T06:30:16;8.80;;;2.60;;
67092;SDS011;54011;50.772;7.730;2022-09-06T06:32:42;10.10;;;2.45;;
67092;SDS011;54011;50.772;7.730;2022-09-06T06:35:07;6.97;;;2.50;;
67092;SDS011;54011;50.772;7.730;2022-09-06T06:37:33;6.07;;;2.30;;
67092;SDS011;54011;50.772;7.730;2022-09-06T06:39:59;5.22;;;2.63;;
67092;SDS011;54011;50.772;7.730;2022-09-06T06:42:24;7.50;;;2.35;;
67092;SDS011;54011;50.772;7.730;2022-09-06T06:44:51;6.32;;;2.55;;
67092;SDS011;54011;50.772;7.730;2022-09-06T06:47:18;6.47;;;2.60;;
67092;SDS011;54011;50.772;7.730;2022-09-06T06:49:43;4.57;;;2.53;;
67092;SDS011;54011;50.772;7.730;2022-09-06T06:52:10;4.53;;;2.42;;
67092;SDS011;54011;50.772;7.730;2022-09-06T06:54:36;5.63;;;2.42;;
67092;SDS011;54011;50.772;7.730;2022-09-06T06:57:02;7.07;;;2.38;;
67092;SDS011;54011;50.772;7.730;2022-09-06T06:59:28;7.35;;;2.70;;
67092;SDS011;54011;50.772;7.730;2022-09-06T07:01:54;6.80;;;2.30;;
67092;SDS011;54011;50.772;7.730;2022-09-06T07:04:19;5.90;;;2.45;;
67092;SDS011;54011;50.772;7.730;2022-09-06T07:07:03;4.82;;;2.40;;
67092;SDS011;54011;50.772;7.730;2022-09-06T07:09:29;7.47;;;2.42;;
67092;SDS011;54011;50.772;7.730;2022-09-06T07:11:54;8.73;;;2.20;;
67092;SDS011;54011;50.772;7.730;2022-09-06T07:14:23;9.20;;;2.33;;
67092;SDS011;54011;50.772;7.730;2022-09-06T07:16:48;6.43;;;2.22;;
67092;SDS011;54011;50.772;7.730;2022-09-06T07:19:15;4.35;;;2.10;;
67092;SDS011;54011;50.772;7.730;2022-09-06T07:21:44;6.47;;;2.10;;
67092;SDS011;54011;50.772;7.730;2022-09-06T07:24:09;6.53;;;2.15;;
67092;SDS011;54011;50.772;7.730;2022-09-06T07:26:35;8.15;;;2.20;;
67092;SDS011;54011;50.772;7.730;2022-09-06T07:29:02;5.82;;;2.50;;
67092;SDS011;54011;50.772;7.730;2022-09-06T07:31:28;7.75;;;2.40;;
67092;SDS011;54011;50.772;7.730;2022-09-06T07:33:56;8.55;;;2.35;;
67092;SDS011;54011;50.772;7.730;2022-09-06T07:36:21;6.32;;;2.20;;
67092;SDS011;54011;50.772;7.730;2022-09-06T07:38:47;6.63;;;2.00;;
67092;SDS011;54011;50.772;7.730;2022-09-06T07:41:13;5.13;;;1.85;;
67092;SDS011;54011;50.772;7.730;2022-09-06T07:43:39;5.13;;;1.98;;
67092;SDS011;54011;50.772;7.730;2022-09-06T07:46:09;9.85;;;2.28;;
67092;SDS011;54011;50.772;7.730;2022-09-06T07:48:36;7.32;;;1.88;;
67092;SDS011;54011;50.772;7.730;2022-09-06T07:51:04;4.07;;;2.03;;
67092;SDS011;54011;50.772;7.730;2022-09-06T07:53:38;5.40;;;1.98;;
67092;SDS011;54011;50.772;7.730;2022-09-06T07:56:05;5.57;;;2.00;;
67092;SDS011;54011;50.772;7.730;2022-09-06T07:58:32;4.15;;;1.83;;
67092;SDS011;54011;50.772;7.730;2022-09-06T08:03:56;5.30;;;1.40;;
67092;SDS011;54011;50.772;7.730;2022-09-06T08:06:23;4.82;;;1.50;;
67092;SDS011;54011;50.772;7.730;2022-09-06T08:08:49;2.67;;;1.05;;
67092;SDS011;54011;50.772;7.730;2022-09-06T08:11:15;2.90;;;1.05;;
67092;SDS011;54011;50.772;7.730;2022-09-06T08:13:41;3.60;;;1.02;;
67092;SDS011;54011;50.772;7.730;2022-09-06T08:16:13;3.03;;;1.27;;
67092;SDS011;54011;50.772;7.730;2022-09-06T08:18:40;3.20;;;1.00;;
67092;SDS011;54011;50.772;7.730;2022-09-06T08:21:10;3.08;;;1.00;;
67092;SDS011;54011;50.772;7.730;2022-09-06T08:23:38;2.83;;;1.10;;
67092;SDS011;54011;50.772;7.730;2022-09-06T08:26:06;2.35;;;0.90;;
67092;SDS011;54011;50.772;7.730;2022-09-06T08:28:33;2.75;;;0.90;;
67092;SDS011;54011;50.772;7.730;2022-09-06T08:31:08;2.35;;;0.80;;
67092;SDS011;54011;50.772;7.730;2022-09-06T08:33:43;2.30;;;0.70;;
67092;SDS011;54011;50.772;7.730;2022-09-06T08:36:09;2.88;;;0.80;;
67092;SDS011;54011;50.772;7.730;2022-09-06T08:38:38;2.03;;;0.68;;
67092;SDS011;54011;50.772;7.730;2022-09-06T08:41:08;2.20;;;0.70;;
67092;SDS011;54011;50.772;7.730;2022-09-06T08:43:51;1.63;;;0.68;;
67092;SDS011;54011;50.772;7.730;2022-09-06T08:46:25;5.97;;;0.93;;
67092;SDS011;54011;50.772;7.730;2022-09-06T08:48:58;1.77;;;0.70;;
67092;SDS011;54011;50.772;7.730;2022-09-06T08:53:59;2.33;;;0.80;;
67092;SDS011;54011;50.772;7.730;2022-09-06T08:56:47;3.10;;;0.80;;
67092;SDS011;54011;50.772;7.730;2022-09-06T08:59:28;8.60;;;1.00;;
67092;SDS011;54011;50.772;7.730;2022-09-06T09:04:35;1.50;;;0.73;;
67092;SDS011;54011;50.772;7.730;2022-09-06T09:07:19;2.42;;;0.65;;
67092;SDS011;54011;50.772;7.730;2022-09-06T09:09:46;1.80;;;0.65;;
67092;SDS011;54011;50.772;7.730;2022-09-06T09:12:14;5.00;;;0.90;;
67092;SDS011;54011;50.772;7.730;2022-09-06T09:14:41;3.33;;;0.90;;
67092;SDS011;54011;50.772;7.730;2022-09-06T09:17:16;3.67;;;1.00;;
67092;SDS011;54011;50.772;7.730;2022-09-06T09:19:46;3.83;;;0.80;;
67092;SDS011;54011;50.772;7.730;2022-09-06T09:22:13;1.88;;;0.70;;
67092;SDS011;54011;50.772;7.730;2022-09-06T09:24:42;3.75;;;0.80;;
67092;SDS011;54011;50.772;7.730;2022-09-06T09:27:08;3.40;;;0.70;;
67092;SDS011;54011;50.772;7.730;2022-09-06T09:30:08;3.30;;;0.93;;
67092;SDS011;54011;50.772;7.730;2022-09-06T09:32:37;2.45;;;0.90;;
67092;SDS011;54011;50.772;7.730;2022-09-06T09:35:15;3.97;;;1.08;;
67092;SDS011;54011;50.772;7.730;2022-09-06T09:37:46;2.78;;;0.90;;
67092;SDS011;54011;50.772;7.730;2022-09-06T09:42:50;2.55;;;0.70;;
67092;SDS011;54011;50.772;7.730;2022-09-06T09:47:44;3.30;;;0.80;;
67092;SDS011;54011;50.772;7.730;2022-09-06T09:50:23;2.47;;;0.77;;
67092;SDS011;54011;50.772;7.730;2022-09-06T09:52:54;2.92;;;0.90;;
67092;SDS011;54011;50.772;7.730;2022-09-06T09:55:23;3.13;;;1.45;;
67092;SDS011;54011;50.772;7.730;2022-09-06T09:57:51;2.17;;;0.75;;
67092;SDS011;54011;50.772;7.730;2022-09-06T10:00:37;3.75;;;0.98;;
67092;SDS011;54011;50.772;7.730;2022-09-06T10:03:14;2.45;;;0.90;;
67092;SDS011;54011;50.772;7.730;2022-09-06T10:05:41;4.43;;;0.90;;
67092;SDS011;54011;50.772;7.730;2022-09-06T10:08:11;2.60;;;0.90;;
67092;SDS011;54011;50.772;7.730;2022-09-06T10:10:42;4.90;;;1.10;;
67092;SDS011;54011;50.772;7.730;2022-09-06T10:13:18;2.38;;;0.90;;
67092;SDS011;54011;50.772;7.730;2022-09-06T10:15:44;3.38;;;0.90;;
67092;SDS011;54011;50.772;7.730;2022-09-06T10:18:14;3.92;;;0.82;;
67092;SDS011;54011;50.772;7.730;2022-09-06T10:21:04;1.83;;;0.70;;
67092;SDS011;54011;50.772;7.730;2022-09-06T10:26:29;2.63;;;0.90;;
67092;SDS011;54011;50.772;7.730;2022-09-06T10:29:05;2.53;;;0.93;;
67092;SDS011;54011;50.772;7.730;2022-09-06T10:31:35;4.05;;;1.00;;
67092;SDS011;54011;50.772;7.730;2022-09-06T10:34:39;3.88;;;1.10;;
67092;SDS011;54011;50.772;7.730;2022-09-06T10:40:08;3.00;;;0.80;;
67092;SDS011;54011;50.772;7.730;2022-09-06T10:42:45;2.88;;;0.90;;
67092;SDS011;54011;50.772;7.730;2022-09-06T10:45:22;3.13;;;1.08;;
67092;SDS011;54011;50.772;7.730;2022-09-06T10:47:55;3.03;;;0.90;;
67092;SDS011;54011;50.772;7.730;2022-09-06T10:50:35;4.90;;;1.30;;
67092;SDS011;54011;50.772;7.730;2022-09-06T10:53:07;2.90;;;0.90;;
67092;SDS011;54011;50.772;7.730;2022-09-06T10:55:38;2.47;;;0.80;;
67092;SDS011;54011;50.772;7.730;2022-09-06T10:58:05;2.60;;;0.93;;
67092;SDS011;54011;50.772;7.730;2022-09-06T11:00:35;3.55;;;0.85;;
67092;SDS011;54011;50.772;7.730;2022-09-06T11:03:08;3.05;;;1.10;;
67092;SDS011;54011;50.772;7.730;2022-09-06T11:05:55;3.72;;;1.00;;
67092;SDS011;54011;50.772;7.730;2022-09-06T11:08:44;1.60;;;0.80;;
67092;SDS011;54011;50.772;7.730;2022-09-06T11:14:13;3.83;;;0.90;;
67092;SDS011;54011;50.772;7.730;2022-09-06T11:16:47;4.25;;;1.08;;
67092;SDS011;54011;50.772;7.730;2022-09-06T11:19:22;4.18;;;1.00;;
67092;SDS011;54011;50.772;7.730;2022-09-06T11:22:18;2.10;;;1.05;;
67092;SDS011;54011;50.772;7.730;2022-09-06T11:24:52;2.97;;;1.05;;
67092;SDS011;54011;50.772;7.730;2022-09-06T11:27:41;2.78;;;0.80;;
67092;SDS011;54011;50.772;7.730;2022-09-06T11:30:12;3.00;;;0.77;;
67092;SDS011;54011;50.772;7.730;2022-09-06T11:32:40;4.13;;;0.80;;
67092;SDS011;54011;50.772;7.730;2022-09-06T11:35:20;4.53;;;1.00;;
67092;SDS011;54011;50.772;7.730;2022-09-06T11:37:47;3.10;;;1.10;;
67092;SDS011;54011;50.772;7.730;2022-09-06T11:40:25;2.95;;;0.90;;
67092;SDS011;54011;50.772;7.730;2022-09-06T11:45:20;2.17;;;0.70;;
67092;SDS011;54011;50.772;7.730;2022-09-06T11:51:29;3.00;;;0.95;;
67092;SDS011;54011;50.772;7.730;2022-09-06T12:06:25;2.90;;;1.00;;
67092;SDS011;54011;50.772;7.730;2022-09-06T12:08:57;3.75;;;1.00;;
67092;SDS011;54011;50.772;7.730;2022-09-06T12:11:41;4.00;;;1.08;;
67092;SDS011;54011;50.772;7.730;2022-09-06T12:14:25;4.53;;;1.42;;
67092;SDS011;54011;50.772;7.730;2022-09-06T12:27:55;2.78;;;1.02;;
67092;SDS011;54011;50.772;7.730;2022-09-06T12:30:35;8.80;;;1.27;;
67092;SDS011;54011;50.772;7.730;2022-09-06T12:35:50;3.72;;;1.33;;
67092;SDS011;54011;50.772;7.730;2022-09-06T12:38:16;4.13;;;1.10;;
67092;SDS011;54011;50.772;7.730;2022-09-06T12:40:48;4.53;;;1.17;;
67092;SDS011;54011;50.772;7.730;2022-09-06T12:43:22;4.15;;;1.30;;
67092;SDS011;54011;50.772;7.730;2022-09-06T12:45:48;5.28;;;1.30;;
67092;SDS011;54011;50.772;7.730;2022-09-06T12:48:34;4.57;;;1.25;;
67092;SDS011;54011;50.772;7.730;2022-09-06T12:51:17;5.27;;;1.20;;
67092;SDS011;54011;50.772;7.730;2022-09-06T12:53:54;3.67;;;1.20;;
67092;SDS011;54011;50.772;7.730;2022-09-06T12:56:22;4.22;;;1.10;;
67092;SDS011;54011;50.772;7.730;2022-09-06T12:58:49;4.03;;;1.30;;
67092;SDS011;54011;50.772;7.730;2022-09-06T13:01:19;4.45;;;1.20;;
67092;SDS011;54011;50.772;7.730;2022-09-06T13:03:58;4.93;;;1.23;;
67092;SDS011;54011;50.772;7.730;2022-09-06T13:06:34;6.18;;;1.67;;
67092;SDS011;54011;50.772;7.730;2022-09-06T13:09:06;3.65;;;1.20;;
67092;SDS011;54011;50.772;7.730;2022-09-06T13:11:35;5.85;;;1.50;;
67092;SDS011;54011;50.772;7.730;2022-09-06T13:14:09;4.22;;;1.10;;
67092;SDS011;54011;50.772;7.730;2022-09-06T13:16:40;6.70;;;1.20;;
67092;SDS011;54011;50.772;7.730;2022-09-06T13:19:16;5.95;;;1.20;;
67092;SDS011;54011;50.772;7.730;2022-09-06T13:21:54;5.32;;;1.30;;
67092;SDS011;54011;50.772;7.730;2022-09-06T13:24:21;3.47;;;1.35;;
67092;SDS011;54011;50.772;7.730;2022-09-06T13:26:49;7.97;;;1.40;;
67092;SDS011;54011;50.772;7.730;2022-09-06T13:31:43;6.20;;;1.25;;
67092;SDS011;54011;50.772;7.730;2022-09-06T13:36:46;4.60;;;1.30;;
67092;SDS011;54011;50.772;7.730;2022-09-06T13:39:27;7.40;;;1.33;;
67092;SDS011;54011;50.772;7.730;2022-09-06T13:42:22;5.95;;;1.30;;
67092;SDS011;54011;50.772;7.730;2022-09-06T13:44:55;8.15;;;1.30;;
67092;SDS011;54011;50.772;7.730;2022-09-06T13:47:21;3.28;;;1.20;;
67092;SDS011;54011;50.772;7.730;2022-09-06T13:49:50;5.55;;;1.25;;
67092;SDS011;54011;50.772;7.730;2022-09-06T13:52:19;4.57;;;1.23;;
67092;SDS011;54011;50.772;7.730;2022-09-06T13:54:45;7.10;;;1.30;;
67092;SDS011;54011;50.772;7.730;2022-09-06T13:57:11;4.75;;;1.25;;
67092;SDS011;54011;50.772;7.730;2022-09-06T13:59:37;5.43;;;1.30;;
67092;SDS011;54011;50.772;7.730;2022-09-06T14:02:07;8.60;;;1.33;;
67092;SDS011;54011;50.772;7.730;2022-09-06T14:04:34;5.65;;;1.40;;
67092;SDS011;54011;50.772;7.730;2022-09-06T14:07:01;6.00;;;1.40;;
67092;SDS011;54011;50.772;7.730;2022-09-06T14:09:27;4.55;;;1.10;;
67092;SDS011;54011;50.772;7.730;2022-09-06T14:11:54;4.82;;;1.50;;
67092;SDS011;54011;50.772;7.730;2022-09-06T14:14:19;4.28;;;1.38;;
67092;SDS011;54011;50.772;7.730;2022-09-06T14:16:45;6.35;;;1.42;;
67092;SDS011;54011;50.772;7.730;2022-09-06T14:19:11;4.10;;;1.40;;
67092;SDS011;54011;50.772;7.730;2022-09-06T14:21:37;4.95;;;1.00;;
67092;SDS011;54011;50.772;7.730;2022-09-06T14:24:03;5.20;;;1.30;;
67092;SDS011;54011;50.772;7.730;2022-09-06T14:26:29;6.88;;;1.38;;
67092;SDS011;54011;50.772;7.730;2022-09-06T14:28:54;4.68;;;1.40;;
67092;SDS011;54011;50.772;7.730;2022-09-06T14:31:21;6.07;;;1.40;;
67092;SDS011;54011;50.772;7.730;2022-09-06T14:36:16;7.43;;;1.38;;
67092;SDS011;54011;50.772;7.730;2022-09-06T14:38:44;3.38;;;1.15;;
67092;SDS011;54011;50.772;7.730;2022-09-06T14:41:10;11.02;;;1.52;;
67092;SDS011;54011;50.772;7.730;2022-09-06T14:43:38;6.05;;;1.45;;
67092;SDS011;54011;50.772;7.730;2022-09-06T14:46:04;4.25;;;1.00;;
67092;SDS011;54011;50.772;7.730;2022-09-06T14:48:30;4.18;;;1.15;;
67092;SDS011;54011;50.772;7.730;2022-09-06T14:50:57;10.05;;;1.50;;
67092;SDS011;54011;50.772;7.730;2022-09-06T14:53:22;7.65;;;1.38;;
67092;SDS011;54011;50.772;7.730;2022-09-06T14:55:48;5.68;;;1.30;;
67092;SDS011;54011;50.772;7.730;2022-09-06T14:58:13;3.95;;;1.20;;
67092;SDS011;54011;50.772;7.730;2022-09-06T15:00:39;5.13;;;1.20;;
67092;SDS011;54011;50.772;7.730;2022-09-06T15:03:05;4.15;;;1.20;;
67092;SDS011;54011;50.772;7.730;2022-09-06T15:05:32;3.97;;;1.10;;
67092;SDS011;54011;50.772;7.730;2022-09-06T15:07:57;6.82;;;1.08;;
67092;SDS011;54011;50.772;7.730;2022-09-06T15:10:22;3.95;;;1.40;;
67092;SDS011;54011;50.772;7.730;2022-09-06T15:12:49;5.32;;;1.33;;
67092;SDS011;54011;50.772;7.730;2022-09-06T15:15:14;3.53;;;1.17;;
67092;SDS011;54011;50.772;7.730;2022-09-06T15:17:40;5.05;;;1.02;;
67092;SDS011;54011;50.772;7.730;2022-09-06T15:20:06;2.72;;;1.00;;
67092;SDS011;54011;50.772;7.730;2022-09-06T15:22:32;6.93;;;1.10;;
67092;SDS011;54011;50.772;7.730;2022-09-06T15:24:57;5.43;;;1.00;;
67092;SDS011;54011;50.772;7.730;2022-09-06T15:27:23;4.18;;;0.68;;
67092;SDS011;54011;50.772;7.730;2022-09-06T15:29:48;1.52;;;0.70;;
67092;SDS011;54011;50.772;7.730;2022-09-06T15:32:13;3.58;;;0.85;;
67092;SDS011;54011;50.772;7.730;2022-09-06T15:34:39;2.35;;;0.85;;
67092;SDS011;54011;50.772;7.730;2022-09-06T15:37:04;4.65;;;1.00;;
67092;SDS011;54011;50.772;7.730;2022-09-06T15:39:29;4.05;;;0.80;;
67092;SDS011;54011;50.772;7.730;2022-09-06T15:41:55;4.32;;;1.00;;
67092;SDS011;54011;50.772;7.730;2022-09-06T15:44:21;2.80;;;0.90;;
67092;SDS011;54011;50.772;7.730;2022-09-06T15:46:54;2.97;;;1.08;;
67092;SDS011;54011;50.772;7.730;2022-09-06T15:49:24;4.10;;;0.90;;
67092;SDS011;54011;50.772;7.730;2022-09-06T15:51:51;2.50;;;0.88;;
67092;SDS011;54011;50.772;7.730;2022-09-06T15:54:17;3.75;;;0.95;;
67092;SDS011;54011;50.772;7.730;2022-09-06T15:57:04;3.05;;;0.90;;
67092;SDS011;54011;50.772;7.730;2022-09-06T15:59:29;3.55;;;0.90;;
67092;SDS011;54011;50.772;7.730;2022-09-06T16:01:55;2.30;;;0.90;;
67092;SDS011;54011;50.772;7.730;2022-09-06T16:04:20;4.10;;;1.00;;
67092;SDS011;54011;50.772;7.730;2022-09-06T16:06:46;4.72;;;1.05;;
67092;SDS011;54011;50.772;7.730;2022-09-06T16:09:12;4.20;;;1.13;;
67092;SDS011;54011;50.772;7.730;2022-09-06T16:11:38;5.55;;;1.05;;
67092;SDS011;54011;50.772;7.730;2022-09-06T16:14:04;2.40;;;0.80;;
67092;SDS011;54011;50.772;7.730;2022-09-06T16:16:31;3.58;;;1.00;;
67092;SDS011;54011;50.772;7.730;2022-09-06T16:18:57;3.08;;;0.85;;